PWSweather.com
Personal Weather Stations
Station Observations
KTXDECATUR
Wildwood, Decatur, TX 76234

WildwoodDecatur, TX 76234

Lat: 33.2634, Lon: -97.6651

Elevation: 800

Station Type: Davis Vantage Pro 2

http://weather.wildwoodnaturist.com

Latest ConditionsUpdated 7:50:01 AM CDT Friday, May 22, 2015
Currently Today's Max Today's Min Today's Average
Temperature 60.0°F15.6°C 62.2°F16.8°C 59.9°F15.5°C 61.5°F16.4°C
Dew Point 58.6°F14.8°C 59.5°F15.3°C 58.3°F14.6°C 58.9°F14.9°C
Winds 4.6 mph SE7.4 kmh SE 8.1 mph E13.0 kmh E - 2.4 mph 3.9 kmh
Wind Gusts 8.1 mph13.0 kmh 11.5 mph18.5 kmh - -
Humidity 95% 95% 89% 91%
Pressure 30.11 in1019.6 mb 30.11 in1019.6 mb 30.07 in1018.3 mb -
Precipitation - 0.01 in0.3 mm - -
Hour Temp Dew Point Humidity Winds Wind Gusts Pressure Precip Precip Rate Daily Precip Total
07:50 AM 60.0°F15.6°C 58.6°F14.8°C 95% 4.6 mph SE7.4 kmh SE 8.1 mph13.0 kmh 30.11 in1019.6 mb - 0.00 in0.0 mm 0.01 in0.3 mm
07:45 AM 60.0°F15.6°C 58.6°F14.8°C 95% 3.5 mph ESE5.6 kmh ESE 8.1 mph13.0 kmh 30.10 in1019.3 mb - 0.00 in0.0 mm 0.01 in0.3 mm
07:40 AM 59.9°F15.5°C 58.5°F14.7°C 95% 4.6 mph ESE7.4 kmh ESE 11.5 mph18.5 kmh 30.11 in1019.6 mb - 0.00 in0.0 mm 0.01 in0.3 mm
07:30 AM 60.0°F15.6°C 58.6°F14.8°C 95% 8.1 mph E13.0 kmh E 10.4 mph16.7 kmh 30.11 in1019.6 mb - 0.01 in0.3 mm 0.01 in0.3 mm
07:20 AM 60.2°F15.7°C 58.8°F14.9°C 95% 4.6 mph SE7.4 kmh SE 8.1 mph13.0 kmh 30.11 in1019.6 mb - 0.00 in0.0 mm 0.00 in0.0 mm
07:15 AM 60.2°F15.7°C 58.8°F14.9°C 95% 4.6 mph ESE7.4 kmh ESE 11.5 mph18.5 kmh 30.11 in1019.6 mb - 0.00 in0.0 mm 0.00 in0.0 mm
07:10 AM 60.2°F15.7°C 58.8°F14.9°C 95% 4.6 mph E7.4 kmh E 5.8 mph9.3 kmh 30.10 in1019.3 mb - 0.00 in0.0 mm 0.00 in0.0 mm
07:00 AM 60.3°F15.7°C 58.6°F14.8°C 94% 3.5 mph E5.6 kmh E 4.6 mph7.4 kmh 30.10 in1019.3 mb - 0.00 in0.0 mm 0.00 in0.0 mm
06:50 AM 60.3°F15.7°C 58.6°F14.8°C 94% 3.5 mph ESE5.6 kmh ESE 6.9 mph11.1 kmh 30.11 in1019.6 mb - 0.00 in0.0 mm 0.00 in0.0 mm
06:45 AM 60.3°F15.7°C 58.6°F14.8°C 94% 3.5 mph ESE5.6 kmh ESE 3.5 mph5.6 kmh 30.11 in1019.6 mb - 0.00 in0.0 mm 0.00 in0.0 mm
06:40 AM 60.3°F15.7°C 58.6°F14.8°C 94% 3.5 mph ESE5.6 kmh ESE 5.8 mph9.3 kmh 30.10 in1019.3 mb - 0.00 in0.0 mm 0.00 in0.0 mm
06:30 AM 60.4°F15.8°C 58.4°F14.7°C 93% 3.5 mph SE5.6 kmh SE 5.8 mph9.3 kmh 30.11 in1019.6 mb - 0.00 in0.0 mm 0.00 in0.0 mm
06:20 AM 60.5°F15.8°C 58.5°F14.7°C 93% 2.3 mph SE3.7 kmh SE 5.8 mph9.3 kmh 30.10 in1019.3 mb - 0.00 in0.0 mm 0.00 in0.0 mm
06:15 AM 60.5°F15.8°C 58.5°F14.7°C 93% 3.5 mph SE5.6 kmh SE 5.8 mph9.3 kmh 30.10 in1019.3 mb - 0.00 in0.0 mm 0.00 in0.0 mm
06:10 AM 60.6°F15.9°C 58.5°F14.7°C 93% 6.9 mph SE11.1 kmh SE 8.1 mph13.0 kmh 30.10 in1019.3 mb - 0.00 in0.0 mm 0.00 in0.0 mm
06:00 AM 60.5°F15.8°C 58.5°F14.7°C 93% 3.5 mph E5.6 kmh E 3.5 mph5.6 kmh 30.09 in1019.0 mb - 0.00 in0.0 mm 0.00 in0.0 mm
05:50 AM 60.6°F15.9°C 58.3°F14.6°C 92% 3.5 mph ESE5.6 kmh ESE 4.6 mph7.4 kmh 30.09 in1019.0 mb - 0.00 in0.0 mm 0.00 in0.0 mm
05:45 AM 60.7°F15.9°C 58.3°F14.6°C 92% 3.5 mph ESE5.6 kmh ESE 8.1 mph13.0 kmh 30.09 in1019.0 mb - 0.00 in0.0 mm 0.00 in0.0 mm
05:40 AM 60.8°F16.0°C 58.5°F14.7°C 92% 3.5 mph SE5.6 kmh SE 6.9 mph11.1 kmh 30.09 in1019.0 mb - 0.00 in0.0 mm 0.00 in0.0 mm
05:30 AM 61.1°F16.2°C 58.8°F14.9°C 92% 4.6 mph E7.4 kmh E 5.8 mph9.3 kmh 30.09 in1019.0 mb - 0.00 in0.0 mm 0.00 in0.0 mm
05:20 AM 61.4°F16.3°C 58.7°F14.8°C 91% 4.6 mph E7.4 kmh E 8.1 mph13.0 kmh 30.09 in1019.0 mb - 0.00 in0.0 mm 0.00 in0.0 mm
05:15 AM 61.6°F16.4°C 58.9°F14.9°C 91% 4.6 mph SE7.4 kmh SE 8.1 mph13.0 kmh 30.09 in1019.0 mb - 0.00 in0.0 mm 0.00 in0.0 mm
05:10 AM 61.7°F16.5°C 59.0°F15.0°C 91% 6.9 mph ESE11.1 kmh ESE 10.4 mph16.7 kmh 30.10 in1019.3 mb - 0.00 in0.0 mm 0.00 in0.0 mm
05:00 AM 61.7°F16.5°C 59.0°F15.0°C 91% 6.9 mph SE11.1 kmh SE 11.5 mph18.5 kmh 30.09 in1019.0 mb - 0.00 in0.0 mm 0.00 in0.0 mm
04:50 AM 61.7°F16.5°C 58.7°F14.8°C 90% 3.5 mph SE5.6 kmh SE 5.8 mph9.3 kmh 30.09 in1019.0 mb - 0.00 in0.0 mm 0.00 in0.0 mm
04:45 AM 61.7°F16.5°C 58.7°F14.8°C 90% 3.5 mph SE5.6 kmh SE 9.2 mph14.8 kmh 30.08 in1018.6 mb - 0.00 in0.0 mm 0.00 in0.0 mm
04:40 AM 61.8°F16.6°C 58.8°F14.9°C 90% 3.5 mph SE5.6 kmh SE 9.2 mph14.8 kmh 30.08 in1018.6 mb - 0.00 in0.0 mm 0.00 in0.0 mm
04:30 AM 62.0°F16.7°C 59.3°F15.2°C 91% 4.6 mph ESE7.4 kmh ESE 4.6 mph7.4 kmh 30.08 in1018.6 mb - 0.00 in0.0 mm 0.00 in0.0 mm
04:20 AM 62.0°F16.7°C 59.0°F15.0°C 90% 2.3 mph SE3.7 kmh SE 4.6 mph7.4 kmh 30.08 in1018.6 mb - 0.00 in0.0 mm 0.00 in0.0 mm
04:15 AM 62.1°F16.7°C 59.1°F15.1°C 90% 1.2 mph SE1.9 kmh SE 3.5 mph5.6 kmh 30.09 in1019.0 mb - 0.00 in0.0 mm 0.00 in0.0 mm
04:10 AM 62.2°F16.8°C 59.2°F15.1°C 90% 1.2 mph SE1.9 kmh SE 2.3 mph3.7 kmh 30.09 in1019.0 mb - 0.00 in0.0 mm 0.00 in0.0 mm
04:00 AM 62.2°F16.8°C 59.2°F15.1°C 90% 2.3 mph SE3.7 kmh SE 5.8 mph9.3 kmh 30.09 in1019.0 mb - 0.00 in0.0 mm 0.00 in0.0 mm
03:50 AM 62.2°F16.8°C 59.2°F15.1°C 90% 2.3 mph SE3.7 kmh SE 3.5 mph5.6 kmh 30.09 in1019.0 mb - 0.00 in0.0 mm 0.00 in0.0 mm
03:45 AM 62.2°F16.8°C 59.2°F15.1°C 90% 2.3 mph SE3.7 kmh SE 4.6 mph7.4 kmh 30.09 in1019.0 mb - 0.00 in0.0 mm 0.00 in0.0 mm
03:40 AM 62.2°F16.8°C 59.2°F15.1°C 90% 1.2 mph ESE1.9 kmh ESE 3.5 mph5.6 kmh 30.09 in1019.0 mb - 0.00 in0.0 mm 0.00 in0.0 mm
03:30 AM 62.2°F16.8°C 59.2°F15.1°C 90% 2.3 mph SE3.7 kmh SE 4.6 mph7.4 kmh 30.08 in1018.6 mb - 0.00 in0.0 mm 0.00 in0.0 mm
03:20 AM 62.2°F16.8°C 59.2°F15.1°C 90% 2.3 mph SE3.7 kmh SE 4.6 mph7.4 kmh 30.08 in1018.6 mb - 0.00 in0.0 mm 0.00 in0.0 mm
03:15 AM 62.2°F16.8°C 59.2°F15.1°C 90% Calm Calm 1.2 mph1.9 kmh 30.08 in1018.6 mb - 0.00 in0.0 mm 0.00 in0.0 mm
03:10 AM 62.1°F16.7°C 59.1°F15.1°C 90% 1.2 mph SE1.9 kmh SE 2.3 mph3.7 kmh 30.08 in1018.6 mb - 0.00 in0.0 mm 0.00 in0.0 mm
03:00 AM 62.1°F16.7°C 59.4°F15.2°C 91% 4.6 mph E7.4 kmh E 8.1 mph13.0 kmh 30.07 in1018.3 mb - 0.00 in0.0 mm 0.00 in0.0 mm
02:50 AM 62.1°F16.7°C 59.4°F15.2°C 91% 2.3 mph E3.7 kmh E 4.6 mph7.4 kmh 30.07 in1018.3 mb - 0.00 in0.0 mm 0.00 in0.0 mm
02:45 AM 62.1°F16.7°C 59.4°F15.2°C 91% 1.2 mph E1.9 kmh E 2.3 mph3.7 kmh 30.07 in1018.3 mb - 0.00 in0.0 mm 0.00 in0.0 mm
02:40 AM 62.2°F16.8°C 59.5°F15.3°C 91% 1.2 mph E1.9 kmh E 2.3 mph3.7 kmh 30.08 in1018.6 mb - 0.00 in0.0 mm 0.00 in0.0 mm
02:30 AM 62.1°F16.7°C 59.1°F15.1°C 90% Calm Calm -- 30.09 in1019.0 mb - 0.00 in0.0 mm 0.00 in0.0 mm
02:20 AM 62.1°F16.7°C 59.1°F15.1°C 90% Calm Calm -- 30.08 in1018.6 mb - 0.00 in0.0 mm 0.00 in0.0 mm
02:15 AM 62.1°F16.7°C 59.1°F15.1°C 90% Calm Calm -- 30.09 in1019.0 mb - 0.00 in0.0 mm 0.00 in0.0 mm
02:10 AM 62.1°F16.7°C 59.1°F15.1°C 90% Calm Calm -- 30.09 in1019.0 mb - 0.00 in0.0 mm 0.00 in0.0 mm
02:00 AM 62.1°F16.7°C 59.1°F15.1°C 90% Calm Calm -- 30.09 in1019.0 mb - 0.00 in0.0 mm 0.00 in0.0 mm
01:50 AM 62.1°F16.7°C 59.1°F15.1°C 90% Calm Calm -- 30.08 in1018.6 mb - 0.00 in0.0 mm 0.00 in0.0 mm
01:45 AM 62.1°F16.7°C 59.1°F15.1°C 90% Calm Calm -- 30.08 in1018.6 mb - 0.00 in0.0 mm 0.00 in0.0 mm
01:40 AM 62.1°F16.7°C 58.8°F14.9°C 89% Calm Calm -- 30.08 in1018.6 mb - 0.00 in0.0 mm 0.00 in0.0 mm
01:30 AM 62.1°F16.7°C 58.8°F14.9°C 89% Calm Calm -- 30.08 in1018.6 mb - 0.00 in0.0 mm 0.00 in0.0 mm
01:20 AM 62.1°F16.7°C 58.8°F14.9°C 89% Calm Calm 2.3 mph3.7 kmh 30.08 in1018.6 mb - 0.00 in0.0 mm 0.00 in0.0 mm
01:15 AM 62.1°F16.7°C 58.8°F14.9°C 89% Calm Calm 1.2 mph1.9 kmh 30.08 in1018.6 mb - 0.00 in0.0 mm 0.00 in0.0 mm
01:10 AM 62.1°F16.7°C 58.8°F14.9°C 89% Calm Calm -- 30.08 in1018.6 mb - 0.00 in0.0 mm 0.00 in0.0 mm
01:00 AM 62.2°F16.8°C 58.9°F14.9°C 89% 1.2 mph E1.9 kmh E 1.2 mph1.9 kmh 30.09 in1019.0 mb - 0.00 in0.0 mm 0.00 in0.0 mm
12:50 AM 62.2°F16.8°C 58.9°F14.9°C 89% Calm Calm -- 30.09 in1019.0 mb - 0.00 in0.0 mm 0.00 in0.0 mm
12:45 AM 62.2°F16.8°C 58.9°F14.9°C 89% Calm Calm -- 30.11 in1019.6 mb - 0.00 in0.0 mm 0.00 in0.0 mm
12:40 AM 62.0°F16.7°C 58.7°F14.8°C 89% Calm Calm -- 30.11 in1019.6 mb - 0.00 in0.0 mm 0.00 in0.0 mm
12:30 AM 61.9°F16.6°C 58.6°F14.8°C 89% Calm Calm -- 30.10 in1019.3 mb - 0.00 in0.0 mm 0.00 in0.0 mm
12:20 AM 61.9°F16.6°C 58.6°F14.8°C 89% Calm Calm -- 30.10 in1019.3 mb - 0.00 in0.0 mm 0.00 in0.0 mm
12:15 AM 61.9°F16.6°C 58.6°F14.8°C 89% Calm Calm -- 30.10 in1019.3 mb - 0.00 in0.0 mm 0.00 in0.0 mm
12:10 AM 61.8°F16.6°C 58.5°F14.7°C 89% Calm Calm -- 30.09 in1019.0 mb - 0.00 in0.0 mm 0.00 in0.0 mm
12:00 AM 61.9°F16.6°C 58.6°F14.8°C 89% Calm Calm -- 30.10 in1019.3 mb - 0.00 in0.0 mm 0.00 in0.0 mm